createdAt,value
2018-03-22T00:02:24.767Z,4.30
2018-03-22T00:04:53.029Z,4.20
2018-03-22T00:07:21.325Z,4.10
2018-03-22T00:09:49.623Z,4.10
2018-03-22T00:12:19.409Z,4.10
2018-03-22T00:14:47.705Z,4.10
2018-03-22T00:17:15.973Z,4.30
2018-03-22T00:19:44.273Z,4.20
2018-03-22T00:22:25.199Z,4.20
2018-03-22T00:24:53.509Z,4.20
2018-03-22T00:27:21.768Z,4.10
2018-03-22T00:29:50.361Z,4.10
2018-03-22T00:32:18.626Z,4.10
2018-03-22T00:34:46.898Z,4.10
2018-03-22T00:37:15.165Z,4.00
2018-03-22T00:39:44.376Z,4.10
2018-03-22T00:42:12.656Z,4.00
2018-03-22T00:44:40.924Z,4.00
2018-03-22T00:47:22.300Z,4.20
2018-03-22T00:49:50.575Z,4.10
2018-03-22T00:52:18.884Z,4.10
2018-03-22T00:54:47.150Z,4.10
2018-03-22T00:57:15.425Z,4.10
2018-03-22T00:59:43.692Z,4.30
2018-03-22T01:02:11.972Z,4.40
2018-03-22T01:04:40.256Z,4.30
2018-03-22T01:07:08.530Z,4.30
2018-03-22T01:09:36.806Z,4.40
2018-03-22T01:12:11.040Z,4.30
2018-03-22T01:14:40.943Z,4.20
2018-03-22T01:17:09.233Z,4.20
2018-03-22T01:19:38.263Z,4.40
2018-03-22T01:22:07.308Z,4.50
2018-03-22T01:24:35.707Z,4.40
2018-03-22T01:27:04.178Z,4.30
2018-03-22T01:29:32.458Z,4.20
2018-03-22T01:32:00.726Z,4.20
2018-03-22T01:34:28.995Z,4.00
2018-03-22T01:36:57.260Z,3.90
2018-03-22T01:39:25.588Z,4.00
2018-03-22T01:41:53.939Z,4.00
2018-03-22T01:44:22.420Z,4.00
2018-03-22T01:46:50.663Z,3.90
2018-03-22T01:49:18.982Z,3.90
2018-03-22T01:51:48.048Z,4.00
2018-03-22T01:54:16.300Z,3.90
2018-03-22T01:56:44.604Z,4.00
2018-03-22T01:59:12.854Z,4.10
2018-03-22T02:01:41.194Z,4.20
2018-03-22T02:04:09.454Z,4.40
2018-03-22T02:06:37.735Z,4.30
2018-03-22T02:09:06.003Z,4.10
2018-03-22T02:11:34.277Z,4.10
2018-03-22T02:14:02.536Z,4.00
2018-03-22T02:16:30.846Z,3.90
2018-03-22T02:18:59.108Z,3.90
2018-03-22T02:21:27.400Z,4.00
2018-03-22T02:23:55.644Z,4.10
2018-03-22T02:26:23.931Z,4.20
2018-03-22T02:28:52.201Z,4.10
2018-03-22T02:31:20.455Z,4.00
2018-03-22T02:33:48.890Z,4.10
2018-03-22T02:36:17.154Z,4.10
2018-03-22T02:38:45.441Z,4.20
2018-03-22T02:41:13.845Z,4.00
2018-03-22T02:43:42.880Z,4.10
2018-03-22T02:46:11.150Z,4.10
2018-03-22T02:48:39.467Z,4.20
2018-03-22T02:51:07.781Z,4.10
2018-03-22T02:53:36.804Z,4.10
2018-03-22T02:56:05.220Z,4.00
2018-03-22T02:58:33.598Z,4.20
2018-03-22T03:01:01.980Z,4.40
2018-03-22T03:03:30.236Z,4.40
2018-03-22T03:05:58.493Z,4.40
2018-03-22T03:08:26.768Z,4.30
2018-03-22T03:10:55.026Z,4.30
2018-03-22T03:13:24.068Z,4.20
2018-03-22T03:15:52.329Z,4.20
2018-03-22T03:18:20.609Z,4.30
2018-03-22T03:20:48.897Z,4.40
2018-03-22T03:23:17.190Z,4.20
2018-03-22T03:25:45.438Z,4.10
2018-03-22T03:28:13.723Z,4.00
2018-03-22T03:30:41.989Z,4.00
2018-03-22T03:33:10.275Z,4.00
2018-03-22T03:35:38.548Z,4.00
2018-03-22T03:38:06.818Z,3.80
2018-03-22T03:40:35.132Z,4.00
2018-03-22T03:43:03.384Z,3.90
2018-03-22T03:45:31.669Z,3.70
2018-03-22T03:47:59.959Z,3.70
2018-03-22T03:50:28.259Z,3.70
2018-03-22T03:52:58.030Z,3.70
2018-03-22T03:55:26.300Z,3.70
2018-03-22T03:57:54.552Z,3.70
2018-03-22T04:00:23.644Z,3.70
2018-03-22T04:02:51.919Z,3.70
2018-03-22T04:05:20.987Z,3.70
2018-03-22T04:07:49.304Z,3.60
2018-03-22T04:10:18.333Z,3.80
2018-03-22T04:12:46.620Z,3.80
2018-03-22T04:15:14.880Z,3.90
2018-03-22T04:17:43.177Z,3.90
2018-03-22T04:20:12.288Z,3.80
2018-03-22T04:22:40.565Z,3.80
2018-03-22T04:25:08.868Z,3.80
2018-03-22T04:27:37.929Z,3.80
2018-03-22T04:30:06.315Z,3.80
2018-03-22T04:32:34.593Z,3.80
2018-03-22T04:35:02.856Z,3.90
2018-03-22T04:37:31.351Z,4.10
2018-03-22T04:40:00.439Z,3.80
2018-03-22T04:42:28.711Z,3.80
2018-03-22T04:44:56.985Z,3.80
2018-03-22T04:47:25.240Z,3.70
2018-03-22T04:49:53.621Z,3.70
2018-03-22T04:52:21.885Z,3.80
2018-03-22T04:54:50.173Z,3.80
2018-03-22T04:57:18.438Z,3.80
2018-03-22T04:59:46.764Z,3.60
2018-03-22T05:02:15.046Z,3.70
2018-03-22T05:04:43.333Z,3.60
2018-03-22T05:07:12.419Z,3.30
2018-03-22T05:09:41.481Z,3.20
2018-03-22T05:12:09.781Z,3.20
2018-03-22T05:14:38.056Z,3.20
2018-03-22T05:17:06.322Z,3.20
2018-03-22T05:19:34.591Z,3.30
2018-03-22T05:22:02.869Z,3.30
2018-03-22T05:24:31.189Z,3.20
2018-03-22T05:27:00.465Z,3.10
2018-03-22T05:29:28.731Z,3.10
2018-03-22T05:31:57.013Z,3.10
2018-03-22T05:34:25.296Z,3.20
2018-03-22T05:36:53.590Z,3.20
2018-03-22T05:39:23.355Z,3.10
2018-03-22T05:41:51.633Z,3.10
2018-03-22T05:44:19.896Z,3.00
2018-03-22T05:46:48.199Z,3.00
2018-03-22T05:49:16.460Z,3.00
2018-03-22T05:51:44.755Z,3.10
2018-03-22T05:54:13.024Z,3.10
2018-03-22T05:56:41.295Z,3.10
2018-03-22T05:59:09.580Z,3.30
2018-03-22T06:01:37.847Z,3.40
2018-03-22T06:04:06.124Z,3.50
2018-03-22T06:06:34.388Z,3.40
2018-03-22T06:09:02.670Z,3.40
2018-03-22T06:11:30.940Z,3.60
2018-03-22T06:13:59.208Z,3.60
2018-03-22T06:16:27.477Z,3.50
2018-03-22T06:18:56.537Z,3.30
2018-03-22T06:21:24.826Z,3.30
2018-03-22T06:23:53.113Z,3.40
2018-03-22T06:26:21.389Z,3.30
2018-03-22T06:28:50.458Z,3.40
2018-03-22T06:31:18.726Z,3.40
2018-03-22T06:33:47.026Z,3.40
2018-03-22T06:36:15.304Z,3.40
2018-03-22T06:38:43.607Z,3.50
2018-03-22T06:41:12.668Z,3.50
2018-03-22T06:43:40.934Z,3.50
2018-03-22T06:46:09.216Z,3.50
2018-03-22T06:48:37.481Z,3.50
2018-03-22T06:51:05.764Z,3.50
2018-03-22T06:53:34.029Z,3.30
2018-03-22T06:56:03.080Z,3.30
2018-03-22T06:58:32.113Z,3.00
2018-03-22T07:01:00.402Z,3.00
2018-03-22T07:03:28.673Z,2.90
2018-03-22T07:05:56.975Z,2.60
2018-03-22T07:08:25.243Z,2.50
2018-03-22T07:10:53.548Z,2.50
2018-03-22T07:13:21.821Z,2.40
2018-03-22T07:15:50.147Z,2.20
2018-03-22T07:18:18.411Z,2.20
2018-03-22T07:20:46.744Z,2.20
2018-03-22T07:23:15.127Z,2.30
2018-03-22T07:25:43.396Z,2.20
2018-03-22T07:28:11.692Z,2.10
2018-03-22T07:30:40.749Z,2.00
2018-03-22T07:33:09.061Z,1.90
2018-03-22T07:35:37.530Z,2.10
2018-03-22T07:38:05.822Z,2.20
2018-03-22T07:40:34.080Z,2.40
2018-03-22T07:43:08.179Z,2.20
2018-03-22T07:45:36.473Z,2.20
2018-03-22T07:48:04.773Z,2.10
2018-03-22T07:50:33.124Z,2.00
2018-03-22T07:53:01.430Z,2.20
2018-03-22T07:55:30.451Z,2.20
2018-03-22T07:57:58.719Z,2.10
2018-03-22T08:00:27.011Z,2.20
2018-03-22T08:03:02.979Z,2.10
2018-03-22T08:05:31.272Z,2.30
2018-03-22T08:07:59.531Z,2.30
2018-03-22T08:10:27.815Z,2.50
2018-03-22T08:12:56.089Z,2.60
2018-03-22T08:15:24.374Z,2.40
2018-03-22T08:17:52.640Z,2.30
2018-03-22T08:20:20.953Z,2.20
2018-03-22T08:22:49.221Z,2.10
2018-03-22T08:25:17.539Z,2.00
2018-03-22T08:27:46.561Z,2.20
2018-03-22T08:30:14.839Z,2.20
2018-03-22T08:32:44.179Z,2.30
2018-03-22T08:35:13.066Z,2.20
2018-03-22T08:37:41.350Z,2.20
2018-03-22T08:40:09.620Z,2.10
2018-03-22T08:42:38.012Z,2.30
2018-03-22T08:45:06.390Z,2.50
2018-03-22T08:47:34.670Z,2.60
2018-03-22T08:50:03.046Z,2.60
2018-03-22T08:52:31.343Z,2.60
2018-03-22T08:54:59.599Z,2.50
2018-03-22T08:57:27.920Z,2.50
2018-03-22T08:59:56.984Z,2.40
2018-03-22T09:02:25.314Z,2.40
2018-03-22T09:04:53.576Z,2.50
2018-03-22T09:07:21.877Z,2.40
2018-03-22T09:09:50.263Z,2.20
2018-03-22T09:12:18.567Z,2.40
2018-03-22T09:14:46.842Z,2.50
2018-03-22T09:17:15.110Z,2.40
2018-03-22T09:19:43.401Z,2.50
2018-03-22T09:22:12.456Z,2.50
2018-03-22T09:24:40.746Z,2.40
2018-03-22T09:27:09.035Z,2.50
2018-03-22T09:29:37.424Z,2.40
2018-03-22T09:32:05.700Z,2.40
2018-03-22T09:34:33.985Z,2.50
2018-03-22T09:37:02.253Z,2.50
2018-03-22T09:39:30.561Z,2.40
2018-03-22T09:42:00.327Z,2.30
2018-03-22T09:44:28.618Z,2.30
2018-03-22T09:46:56.889Z,2.30
2018-03-22T09:49:25.764Z,2.30
2018-03-22T09:51:54.041Z,2.30
2018-03-22T09:54:22.324Z,2.40
2018-03-22T09:56:50.605Z,2.40
2018-03-22T09:59:18.882Z,2.50
2018-03-22T10:01:47.164Z,2.30
2018-03-22T10:04:15.442Z,2.20
2018-03-22T10:06:43.839Z,2.10
2018-03-22T10:09:12.104Z,2.20
2018-03-22T10:11:40.387Z,2.20
2018-03-22T10:14:08.666Z,2.20
2018-03-22T10:16:36.959Z,2.20
2018-03-22T10:19:05.237Z,2.20
2018-03-22T10:21:34.304Z,2.50
2018-03-22T10:24:02.696Z,2.50
2018-03-22T10:26:31.000Z,2.50
2018-03-22T10:29:00.045Z,2.30
2018-03-22T10:31:28.352Z,2.30
2018-03-22T10:33:56.629Z,2.20
2018-03-22T10:36:24.925Z,2.20
2018-03-22T10:38:53.984Z,2.30
2018-03-22T10:41:22.256Z,2.30
2018-03-22T10:43:50.529Z,2.30
2018-03-22T10:46:18.801Z,2.30
2018-03-22T10:48:47.080Z,2.30
2018-03-22T10:51:15.348Z,2.30
2018-03-22T10:53:43.640Z,2.30
2018-03-22T10:56:11.915Z,2.30
2018-03-22T10:58:40.211Z,2.30
2018-03-22T11:01:14.067Z,2.30
2018-03-22T11:03:47.988Z,2.30
2018-03-22T11:06:16.306Z,2.20
2018-03-22T11:08:44.617Z,2.20
2018-03-22T11:11:13.680Z,2.10
2018-03-22T11:13:41.936Z,2.10
2018-03-22T11:16:10.235Z,2.10
2018-03-22T11:18:38.506Z,2.10
2018-03-22T11:21:06.816Z,2.10
2018-03-22T11:23:35.168Z,2.20
2018-03-22T11:26:04.016Z,2.10
2018-03-22T11:28:32.301Z,2.10
2018-03-22T11:31:00.576Z,2.10
2018-03-22T11:33:28.849Z,2.00
2018-03-22T11:35:57.149Z,2.10
2018-03-22T11:38:26.188Z,2.00
2018-03-22T11:40:54.546Z,2.10
2018-03-22T11:43:22.932Z,2.10
2018-03-22T11:45:51.963Z,2.10
2018-03-22T11:48:20.251Z,2.10
2018-03-22T11:50:48.540Z,2.10
2018-03-22T11:53:16.808Z,2.10
2018-03-22T11:55:45.072Z,2.10
2018-03-22T11:58:13.507Z,2.20
2018-03-22T12:00:41.768Z,2.30
2018-03-22T12:03:10.053Z,2.40
2018-03-22T12:05:38.311Z,2.30
2018-03-22T12:08:06.653Z,2.40
2018-03-22T12:10:35.680Z,2.50
2018-03-22T12:13:04.008Z,2.50
2018-03-22T12:15:33.037Z,2.70
2018-03-22T12:18:01.384Z,2.70
2018-03-22T12:20:29.698Z,2.80
2018-03-22T12:22:57.973Z,2.80
2018-03-22T12:25:26.235Z,2.90
2018-03-22T12:27:55.277Z,2.90
2018-03-22T12:30:23.581Z,2.90
2018-03-22T12:32:51.880Z,2.90
2018-03-22T12:35:20.907Z,3.00
2018-03-22T12:37:49.169Z,3.00
2018-03-22T12:40:17.512Z,3.00
2018-03-22T12:42:45.801Z,3.10
2018-03-22T12:45:15.680Z,3.20
2018-03-22T12:47:43.970Z,3.20
2018-03-22T12:50:12.330Z,3.20
2018-03-22T12:52:40.621Z,3.20
2018-03-22T12:55:08.917Z,3.10
2018-03-22T12:57:37.176Z,3.20
2018-03-22T13:00:05.491Z,3.20
2018-03-22T13:02:33.715Z,3.30
2018-03-22T13:05:02.025Z,3.40
2018-03-22T13:07:31.100Z,3.50
2018-03-22T13:09:59.395Z,3.50
2018-03-22T13:12:28.426Z,3.60
2018-03-22T13:14:56.769Z,3.60
2018-03-22T13:17:25.814Z,3.50
2018-03-22T13:19:54.125Z,3.50
2018-03-22T13:22:22.400Z,3.40
2018-03-22T13:24:50.688Z,3.40
2018-03-22T13:27:18.980Z,3.30
2018-03-22T13:29:48.035Z,3.40
2018-03-22T13:32:16.311Z,3.40
2018-03-22T13:34:44.596Z,3.40
2018-03-22T13:37:12.869Z,3.40
2018-03-22T13:39:42.109Z,3.40
2018-03-22T13:42:11.756Z,3.40
2018-03-22T13:44:40.025Z,3.40
2018-03-22T13:47:08.322Z,3.50
2018-03-22T13:49:36.627Z,3.50
2018-03-22T13:52:04.911Z,3.50
2018-03-22T13:54:33.213Z,3.60
2018-03-22T13:57:02.236Z,3.70
2018-03-22T13:59:30.520Z,3.70
2018-03-22T14:01:58.811Z,3.70
2018-03-22T14:04:27.208Z,3.70
2018-03-22T14:06:55.476Z,3.70
2018-03-22T14:09:23.763Z,3.60
2018-03-22T14:11:52.041Z,3.70
2018-03-22T14:14:20.333Z,3.70
2018-03-22T14:16:49.378Z,3.60
2018-03-22T14:19:17.792Z,3.60
2018-03-22T14:21:46.045Z,3.60
2018-03-22T14:24:14.320Z,3.70
2018-03-22T14:26:42.623Z,3.70
2018-03-22T14:29:10.901Z,3.80
2018-03-22T14:31:40.207Z,3.80
2018-03-22T14:34:08.480Z,3.90
2018-03-22T14:36:36.858Z,3.80
2018-03-22T14:39:05.112Z,3.90
2018-03-22T14:41:33.456Z,3.80
2018-03-22T14:44:02.492Z,3.80
2018-03-22T14:46:30.892Z,3.80
2018-03-22T14:49:00.692Z,3.80
2018-03-22T14:51:28.965Z,3.80
2018-03-22T14:53:57.243Z,3.90
2018-03-22T14:56:25.525Z,3.90
2018-03-22T14:58:53.801Z,3.90
2018-03-22T15:01:22.100Z,3.90
2018-03-22T15:03:50.370Z,3.90
2018-03-22T15:06:18.715Z,3.90
2018-03-22T15:08:47.762Z,3.90
2018-03-22T15:11:16.015Z,3.90
2018-03-22T15:13:44.303Z,3.90
2018-03-22T15:16:12.585Z,4.00
2018-03-22T15:18:41.631Z,4.00
2018-03-22T15:21:09.942Z,4.00
2018-03-22T15:23:38.325Z,4.00
2018-03-22T15:26:06.603Z,4.10
2018-03-22T15:28:34.923Z,4.00
2018-03-22T15:31:03.966Z,4.00
2018-03-22T15:33:32.262Z,4.00
2018-03-22T15:36:00.632Z,4.00
2018-03-22T15:38:28.921Z,4.00
2018-03-22T15:40:57.950Z,4.10
2018-03-22T15:43:26.281Z,4.10
2018-03-22T15:45:54.578Z,4.10
2018-03-22T15:48:23.605Z,4.10
2018-03-22T15:50:51.913Z,4.10
2018-03-22T15:53:20.176Z,4.10
2018-03-22T15:55:48.478Z,4.10
2018-03-22T15:58:16.774Z,4.10
2018-03-22T16:00:46.570Z,4.10
2018-03-22T16:03:14.861Z,4.00
2018-03-22T16:05:43.256Z,4.10
2018-03-22T16:08:11.525Z,4.10
2018-03-22T16:10:40.586Z,4.00
2018-03-22T16:13:08.866Z,4.00
2018-03-22T16:15:37.265Z,4.10
2018-03-22T16:18:05.522Z,4.20
2018-03-22T16:20:33.789Z,4.10
2018-03-22T16:23:02.080Z,4.10
2018-03-22T16:25:30.356Z,4.10
2018-03-22T16:27:58.651Z,4.10
2018-03-22T16:30:26.912Z,4.20
2018-03-22T16:32:55.202Z,4.20
2018-03-22T16:35:23.496Z,4.20
2018-03-22T16:37:53.287Z,4.10
2018-03-22T16:40:21.554Z,4.10
2018-03-22T16:42:49.834Z,4.20
2018-03-22T16:45:18.132Z,4.30
2018-03-22T16:47:46.606Z,4.30
2018-03-22T16:50:14.864Z,4.30
2018-03-22T16:52:43.162Z,4.30
2018-03-22T16:55:11.440Z,4.30
2018-03-22T16:57:39.711Z,4.30
2018-03-22T17:00:08.093Z,4.30
2018-03-22T17:02:36.396Z,4.30
2018-03-22T17:05:05.449Z,4.30
2018-03-22T17:07:33.715Z,4.30
2018-03-22T17:10:02.009Z,4.30
2018-03-22T17:12:30.302Z,4.20
2018-03-22T17:14:58.580Z,4.20
2018-03-22T17:17:26.948Z,4.10
2018-03-22T17:19:55.338Z,4.10
2018-03-22T17:22:23.653Z,4.10
2018-03-22T17:24:51.913Z,4.10
2018-03-22T17:27:21.679Z,4.10
2018-03-22T17:29:49.965Z,4.10
2018-03-22T17:32:18.355Z,4.10
2018-03-22T17:34:46.786Z,4.10
2018-03-22T17:37:15.832Z,4.10
2018-03-22T17:39:44.100Z,4.10
2018-03-22T17:42:12.497Z,4.20
2018-03-22T17:44:40.974Z,4.20
2018-03-22T17:47:09.452Z,4.20
2018-03-22T17:49:37.699Z,4.20
2018-03-22T17:52:05.988Z,4.30
2018-03-22T17:54:34.247Z,4.20
2018-03-22T17:57:02.542Z,4.30
2018-03-22T17:59:30.806Z,4.30
2018-03-22T18:01:59.116Z,4.20
2018-03-22T18:04:27.391Z,4.20
2018-03-22T18:06:55.876Z,4.20
2018-03-22T18:09:24.128Z,4.20
2018-03-22T18:11:52.429Z,4.30
2018-03-22T18:14:20.677Z,4.30
2018-03-22T18:16:48.989Z,4.30
2018-03-22T18:19:17.303Z,4.20
2018-03-22T18:21:45.696Z,4.30
2018-03-22T18:24:13.976Z,4.30
2018-03-22T18:26:42.251Z,4.30
2018-03-22T18:29:10.545Z,4.30
2018-03-22T18:31:38.853Z,4.30
2018-03-22T18:34:07.236Z,4.30
2018-03-22T18:36:35.510Z,4.40
2018-03-22T18:39:03.817Z,4.40
2018-03-22T18:41:32.973Z,4.40
2018-03-22T18:44:01.249Z,4.40
2018-03-22T18:46:29.552Z,4.40
2018-03-22T18:48:57.933Z,4.50
2018-03-22T18:51:26.295Z,4.50
2018-03-22T18:53:54.561Z,4.50
2018-03-22T18:56:22.841Z,4.50
2018-03-22T18:58:51.101Z,4.50
2018-03-22T19:01:19.390Z,4.50
2018-03-22T19:03:47.691Z,4.50
2018-03-22T19:06:15.976Z,4.60
2018-03-22T19:08:44.996Z,4.60
2018-03-22T19:11:14.073Z,4.60
2018-03-22T19:13:42.431Z,4.60
2018-03-22T19:16:10.680Z,4.70
2018-03-22T19:18:38.972Z,4.70
2018-03-22T19:21:07.265Z,4.60
2018-03-22T19:23:35.849Z,4.60
2018-03-22T19:26:04.227Z,4.60
2018-03-22T19:28:32.623Z,4.50
2018-03-22T19:31:00.899Z,4.50
2018-03-22T19:33:29.369Z,4.50
2018-03-22T19:35:57.642Z,4.60
2018-03-22T19:38:25.910Z,4.60
2018-03-22T19:40:54.177Z,4.70
2018-03-22T19:43:22.488Z,4.70
2018-03-22T19:45:51.522Z,4.70
2018-03-22T19:48:19.825Z,4.70
2018-03-22T19:50:48.127Z,4.80
2018-03-22T19:53:16.400Z,4.80
2018-03-22T19:55:44.669Z,4.80
2018-03-22T19:58:12.968Z,4.90
2018-03-22T20:00:42.070Z,4.90
2018-03-22T20:03:10.333Z,4.90
2018-03-22T20:05:38.664Z,4.90
2018-03-22T20:08:07.010Z,5.00
2018-03-22T20:10:35.355Z,5.00
2018-03-22T20:13:03.643Z,5.00
2018-03-22T20:15:31.922Z,5.00
2018-03-22T20:18:00.195Z,5.00
2018-03-22T20:20:28.574Z,5.00
2018-03-22T20:22:56.833Z,5.00
2018-03-22T20:25:25.133Z,5.10
2018-03-22T20:27:53.378Z,5.10
2018-03-22T20:30:21.652Z,5.20
2018-03-22T20:32:49.951Z,5.10
2018-03-22T20:35:18.228Z,5.10
2018-03-22T20:37:46.492Z,5.10
2018-03-22T20:40:14.772Z,5.10
2018-03-22T20:42:43.077Z,5.10
2018-03-22T20:45:11.356Z,5.10
2018-03-22T20:47:39.622Z,5.00
2018-03-22T20:50:08.004Z,5.00
2018-03-22T20:52:36.291Z,5.00
2018-03-22T20:55:06.195Z,5.00
2018-03-22T20:57:34.481Z,5.00
2018-03-22T21:00:02.871Z,5.00
2018-03-22T21:02:31.193Z,5.10
2018-03-22T21:04:59.451Z,5.10
2018-03-22T21:07:28.510Z,5.10
2018-03-22T21:09:56.785Z,5.10
2018-03-22T21:12:25.063Z,5.20
2018-03-22T21:14:53.392Z,5.10
2018-03-22T21:17:21.737Z,5.10
2018-03-22T21:19:51.601Z,5.10
2018-03-22T21:22:20.008Z,5.10
2018-03-22T21:24:48.388Z,5.10
2018-03-22T21:27:16.771Z,5.10
2018-03-22T21:29:45.020Z,5.10
2018-03-22T21:32:13.285Z,5.10
2018-03-22T21:34:41.701Z,5.20
2018-03-22T21:37:09.951Z,5.20
2018-03-22T21:39:38.238Z,5.30
2018-03-22T21:42:07.323Z,5.30
2018-03-22T21:44:35.658Z,5.40
2018-03-22T21:47:16.611Z,5.20
2018-03-22T21:49:44.994Z,5.20
2018-03-22T21:52:25.122Z,5.30
2018-03-22T21:54:53.416Z,5.30
2018-03-22T21:57:21.903Z,5.30
2018-03-22T21:59:50.186Z,5.30
2018-03-22T22:02:18.556Z,5.20
2018-03-22T22:04:46.826Z,5.30
2018-03-22T22:07:15.210Z,5.30
2018-03-22T22:09:43.486Z,5.30
2018-03-22T22:12:11.764Z,5.30
2018-03-22T22:14:40.028Z,5.30
2018-03-22T22:17:08.324Z,5.30
2018-03-22T22:19:36.597Z,5.30
2018-03-22T22:22:04.848Z,5.30
2018-03-22T22:24:33.124Z,5.30
2018-03-22T22:27:01.428Z,5.20
2018-03-22T22:29:29.719Z,5.30
2018-03-22T22:31:58.748Z,5.30
2018-03-22T22:34:27.280Z,5.30
2018-03-22T22:36:55.568Z,5.30
2018-03-22T22:39:23.925Z,5.30
2018-03-22T22:41:52.174Z,5.40
2018-03-22T22:44:20.452Z,5.40
2018-03-22T22:46:48.760Z,5.40
2018-03-22T22:49:17.033Z,5.40
2018-03-22T22:51:45.322Z,5.40
2018-03-22T22:54:13.615Z,5.40
2018-03-22T22:56:41.981Z,5.40
2018-03-22T22:59:10.188Z,5.50
2018-03-22T23:01:39.255Z,5.50
2018-03-22T23:04:07.650Z,5.50
2018-03-22T23:06:35.941Z,5.50
2018-03-22T23:09:05.045Z,5.80
2018-03-22T23:11:34.112Z,5.70
2018-03-22T23:14:03.886Z,5.80
2018-03-22T23:16:32.163Z,5.80
2018-03-22T23:19:00.452Z,5.80
2018-03-22T23:21:28.729Z,6.00
2018-03-22T23:23:57.404Z,5.90
2018-03-22T23:26:25.696Z,5.90
2018-03-22T23:28:53.980Z,5.80
2018-03-22T23:31:22.286Z,5.80
2018-03-22T23:33:50.565Z,5.70
2018-03-22T23:36:18.860Z,5.80
2018-03-22T23:38:47.891Z,5.70
2018-03-22T23:41:16.167Z,5.70
2018-03-22T23:43:45.108Z,5.70
2018-03-22T23:46:15.108Z,5.80
2018-03-22T23:48:43.369Z,5.80
2018-03-22T23:51:11.654Z,5.90
2018-03-22T23:53:39.950Z,6.00
2018-03-22T23:56:08.990Z,6.00
2018-03-22T23:58:37.285Z,6.00
